Terminal Aerodrome Forecast
Issued by NWS Sterling, VA

Current Version | Previous Version | Graphics & Text | Print | Product List | Glossary On
Versions: 1 2 3 4 5 6 7 8 9 10 11 12 13 14 15 16 17 18 19 20 21 22 23 24 25
858
FTUS41 KLWX 141120
TAFIAD
TAF
KIAD 141120Z 1412/1518 01006KT P6SM OVC006
     FM141700 00000KT P6SM BKN020
     FM141900 00000KT P6SM SCT025
     FM142300 00000KT P6SM SKC
     FM150600 00000KT 3SM BR SCT003
     FM150800 00000KT 1/2SM FG SCT003
     FM151200 00000KT 1SM BR SCT250
     FM151500 20006KT P6SM SCT250=

USA.gov is the U.S. government's official web portal to all federal, state and local government web resources and services.